Weather reports worldwide

Advertisment
Pantelleria, Italy (16470): temperature & dewpoint: 12.08.2019 03:00:00 - 18.08.2019 03:00:00 (CEST)Pantelleria, Italy (16470): wind speed: 12.08.2019 03:00:00 - 18.08.2019 03:00:00 (CEST)Pantelleria, Italy (16470): wind direction: 12.08.2019 03:00:00 - 18.08.2019 03:00:00 (CEST)Pantelleria, Italy (16470): visibility: 12.08.2019 03:00:00 - 18.08.2019 03:00:00 (CEST)
Date & Time tt [°C] td [°C] ff [km/h] ff [kn] dd vv [km]
18.08.2019 03:00:00 - - - - - -
18.08.2019 02:00:00 - - - - - -
18.08.2019 01:00:00 - - - - - -
18.08.2019 00:00:00 - - - - - -
17.08.2019 23:00:00 - - - - - -
17.08.2019 22:00:00 - - - - - -
17.08.2019 21:00:00 - - - - - -
17.08.2019 20:00:00 25,0 22,0 13 7 N 10
17.08.2019 19:00:00 26,0 23,0 11 6 NNW 10
17.08.2019 18:00:00 26,0 22,0 9 5 N 10
17.08.2019 17:00:00 27,0 22,0 15 8 WNW 10
17.08.2019 16:00:00 27,0 22,0 13 7 NNW 10
17.08.2019 15:00:00 27,0 22,0 16 9 WNW 10
17.08.2019 14:00:00 27,0 22,0 16 9 NNW 10
17.08.2019 13:00:00 27,0 22,0 13 7 WNW 10
17.08.2019 12:00:00 27,0 22,0 13 7 WNW 10
17.08.2019 11:00:00 26,0 22,0 13 7 NW 10
17.08.2019 10:00:00 26,0 22,0 13 7 NW 10
17.08.2019 09:00:00 25,0 22,0 13 7 NW 10
17.08.2019 08:00:00 24,0 22,0 9 5 W 10
17.08.2019 07:00:00 23,0 22,0 9 5 W 10
17.08.2019 06:00:00 - - - - - -
17.08.2019 05:00:00 - - - - - -
17.08.2019 04:00:00 - - - - - -
17.08.2019 03:00:00 - - - - - -
17.08.2019 02:00:00 - - - - - -
17.08.2019 01:00:00 - - - - - -
17.08.2019 00:00:00 - - - - - -
16.08.2019 23:00:00 - - - - - -
16.08.2019 22:00:00 - - - - - -
16.08.2019 21:00:00 - - - - - -
16.08.2019 20:00:00 25,0 21,0 16 9 WNW 10
16.08.2019 19:00:00 26,0 20,0 22 12 WNW 10
16.08.2019 18:00:00 27,0 21,0 18 10 W 10
16.08.2019 17:00:00 27,0 21,0 22 12 W 10
16.08.2019 16:00:00 27,0 21,0 21 11 W 10
16.08.2019 15:00:00 28,0 21,0 26 14 W 10
16.08.2019 14:00:00 28,0 21,0 29 16 W 10
16.08.2019 13:00:00 28,0 22,0 24 13 W 10
16.08.2019 12:00:00 27,0 22,0 29 16 W 10
16.08.2019 11:00:00 26,0 22,0 22 12 W 10
16.08.2019 10:00:00 26,0 22,0 13 7 W 10
16.08.2019 09:00:00 25,0 22,0 13 7 W 10
16.08.2019 08:00:00 24,0 22,0 13 7 W 10
16.08.2019 07:00:00 23,0 21,0 13 7 W 10
16.08.2019 06:00:00 - - - - - -
16.08.2019 05:00:00 - - - - - -
16.08.2019 04:00:00 - - - - - -
16.08.2019 03:00:00 - - - - - -
16.08.2019 02:00:00 - - - - - -
16.08.2019 01:00:00 - - - - - -
16.08.2019 00:00:00 - - - - - -
15.08.2019 23:00:00 - - - - - -
15.08.2019 22:00:00 - - - - - -
15.08.2019 21:00:00 - - - - - -
15.08.2019 20:00:00 25,0 20,0 21 11 WNW 10
15.08.2019 19:00:00 - - - - - -
15.08.2019 18:00:00 26,0 21,0 24 13 WNW 10
15.08.2019 17:00:00 27,0 21,0 18 10 WNW 10
15.08.2019 16:00:00 27,0 21,0 24 13 NW 10
15.08.2019 15:00:00 27,0 21,0 28 15 W 10
15.08.2019 14:00:00 27,0 22,0 29 16 WNW 10
15.08.2019 13:00:00 28,0 21,0 21 11 NNW 10
15.08.2019 12:00:00 26,0 23,0 21 11 NNW 10
15.08.2019 11:00:00 26,0 22,0 28 15 W 10
15.08.2019 10:00:00 25,0 21,0 24 13 W 10
15.08.2019 09:00:00 24,0 21,0 18 10 W 10
15.08.2019 08:00:00 24,0 20,0 21 11 WNW 10
15.08.2019 07:00:00 24,0 19,0 22 12 WNW 10
15.08.2019 06:00:00 - - - - - -
15.08.2019 05:00:00 - - - - - -
15.08.2019 04:00:00 - - - - - -
15.08.2019 03:00:00 - - - - - -
15.08.2019 02:00:00 - - - - - -
15.08.2019 01:00:00 - - - - - -
15.08.2019 00:00:00 - - - - - -
14.08.2019 23:00:00 - - - - - -
14.08.2019 22:00:00 - - - - - -
14.08.2019 21:00:00 - - - - - -
14.08.2019 20:00:00 25,0 19,0 24 13 WNW 10
14.08.2019 19:00:00 26,0 19,0 29 16 W 10
14.08.2019 18:00:00 27,0 18,0 28 15 WNW 10
14.08.2019 17:00:00 27,0 18,0 29 16 W 10
14.08.2019 16:00:00 27,0 18,0 29 16 WNW 10
14.08.2019 15:00:00 27,0 18,0 29 16 W 10
14.08.2019 14:00:00 27,0 18,0 26 14 WNW 10
14.08.2019 13:00:00 27,0 19,0 28 15 WNW 10
14.08.2019 12:00:00 28,0 18,0 29 16 WNW 10
14.08.2019 11:00:00 27,0 19,0 28 15 WNW 10
14.08.2019 10:00:00 27,0 19,0 26 14 WNW 10
14.08.2019 09:00:00 26,0 19,0 26 14 NW 10
14.08.2019 08:00:00 - - 22 12 NW 10
14.08.2019 07:00:00 - - 18 10 WNW 10
14.08.2019 06:00:00 - - - - - -
14.08.2019 05:00:00 - - - - - -
14.08.2019 04:00:00 - - - - - -
14.08.2019 03:00:00 - - - - - -
14.08.2019 02:00:00 - - - - - -
14.08.2019 01:00:00 - - - - - -
14.08.2019 00:00:00 - - - - - -
13.08.2019 23:00:00 - - - - - -
13.08.2019 22:00:00 - - - - - -
13.08.2019 21:00:00 - - - - - -
13.08.2019 20:00:00 26,0 25,0 13 7 NNW 10
13.08.2019 19:00:00 27,0 25,0 16 9 NW 10
13.08.2019 18:00:00 28,0 25,0 15 8 WNW 10
13.08.2019 17:00:00 28,0 25,0 21 11 W 10
13.08.2019 16:00:00 28,0 25,0 26 14 W 10
13.08.2019 15:00:00 29,0 25,0 24 13 W 10
13.08.2019 14:00:00 29,0 25,0 26 14 W 10
13.08.2019 13:00:00 29,0 25,0 26 14 W 10
13.08.2019 12:00:00 29,0 25,0 26 14 W 10
13.08.2019 11:00:00 28,0 25,0 21 11 WNW 10
13.08.2019 10:00:00 27,0 25,0 21 11 WNW 10
13.08.2019 09:00:00 26,0 25,0 18 10 WNW 10
13.08.2019 08:00:00 26,0 25,0 21 11 WNW 10
13.08.2019 07:00:00 26,0 25,0 16 9 WNW 10
13.08.2019 06:00:00 - - - - - -
13.08.2019 05:00:00 - - - - - -
13.08.2019 04:00:00 - - - - - -
13.08.2019 03:00:00 - - - - - -
13.08.2019 02:00:00 - - - - - -
13.08.2019 01:00:00 - - - - - -
13.08.2019 00:00:00 - - - - - -
12.08.2019 23:00:00 - - - - - -
12.08.2019 22:00:00 - - - - - -
12.08.2019 21:00:00 - - - - - -
12.08.2019 20:00:00 29,0 19,0 4 2 - 10
12.08.2019 19:00:00 30,0 18,0 5 3 NNW 10
12.08.2019 18:00:00 31,0 18,0 8 4 NNW 10
12.08.2019 17:00:00 31,0 22,0 9 5 NW 10
12.08.2019 16:00:00 32,0 22,0 5 3 NW 10
12.08.2019 15:00:00 31,0 22,0 9 5 WNW 10
12.08.2019 14:00:00 31,0 22,0 9 5 W 10
12.08.2019 13:00:00 23,0 21,0 13 7 W 10
12.08.2019 12:00:00 31,0 20,0 15 8 W 10
12.08.2019 11:00:00 30,0 21,0 8 4 W 10
12.08.2019 10:00:00 28,0 21,0 9 5 W 10
12.08.2019 09:00:00 27,0 24,0 9 5 WSW 10
12.08.2019 08:00:00 25,0 25,0 9 5 SSW 10
12.08.2019 07:00:00 24,0 24,0 9 5 SSW 10
12.08.2019 06:00:00 - - - - - -
12.08.2019 05:00:00 - - - - - -
12.08.2019 04:00:00 - - - - - -
12.08.2019 03:00:00 - - - - - -

tt = temperature
td = dewpoint
ff = wind speed
dd = wind direction
vv = visibility

Next stations